Thunder radar more information blitzortung!


Radar de pluja more information rain snow radar


Visita la nostra xarxa de llocs de meteo:

Template documentation
and downloads

And another site



Extreme low temperature From: 13-12-2017 09:00 Until: 09:59 warning for: Extreme low temperature Level: Yellow info button

Pagina Historial Weather Underground text

Diari Resum Agost 12, 2017 Unitats:  Imperial    Mètric   Tant
« Previous Dia
SegĂźent Dia »
Diari Setmana Mensual Anual Personalitzada
  Maxima: Minima: Media:
Temperatura: 85.3 °F 61.7 °F 75.2 °F
Punt de rosada: 61.2 °F 48.9 °F 54.5 °F
Humitat: 82 % 30 % 51 %
Wind Speed: 10.4 mph 0 mph 3.9 mph
RĂ fegues de vent: 10.4 mph - -
Vent:- - SSW
Pression baro: 30.2 in 30 in -
Precipitacions: 0 in    
Historical Graphs
 
 
Dades de taula per Agost 12, 2017
Temps Temperatura Punt de rosada Pression baro Vent Wind Speed RĂ fegues de vent Humitat Rainfall Rate (Hourly)
00:00 63.9 °F 56.1 °F 30.1 in Calm     76 % 0 in
00:03 68 °F 55.4 °F 30.2 in NE 2.4 mph 2.4 mph 64 % 0 in
00:08 67.8 °F 55.6 °F 30.2 in NE 2.3 mph   65 % 0 in
00:10 63.7 °F 56.3 °F 30.1 in Calm     77 % 0 in
00:20 63.5 °F 56.1 °F 30.1 in Calm     77 % 0 in
00:30 63.7 °F 56.3 °F 30.1 in SSW 1 mph 1 mph 77 % 0 in
00:40 63.3 °F 55.9 °F 30.1 in South 1 mph 2 mph 77 % 0 in
00:50 63 °F 55.9 °F 30.1 in Calm   2 mph 78 % 0 in
01:00 63 °F 55.9 °F 30.1 in Calm     78 % 0 in
01:10 62.8 °F 55.8 °F 30.1 in Calm   1 mph 78 % 0 in
01:20 62.6 °F 55.6 °F 30.1 in SSW 1 mph 2 mph 78 % 0 in
01:30 62.1 °F 55.6 °F 30.1 in Calm   3 mph 79 % 0 in
01:40 62.1 °F 55.8 °F 30.1 in Calm     80 % 0 in
01:50 61.7 °F 55.6 °F 30.1 in SW 2 mph 2 mph 80 % 0 in
02:00 61.7 °F 55.8 °F 30.1 in Calm   1 mph 81 % 0 in
02:10 61.7 °F 55.8 °F 30.1 in SW 1 mph 2 mph 81 % 0 in
02:20 61.9 °F 55.9 °F 30.2 in Calm     81 % 0 in
02:30 62.4 °F 56.8 °F 30.2 in Calm   1 mph 82 % 0 in
02:40 62.8 °F 56.8 °F 30.2 in Calm   1 mph 81 % 0 in
02:50 63.1 °F 57.2 °F 30.2 in Calm     81 % 0 in
03:00 64.4 °F 58.1 °F 30.2 in SE 1 mph 2 mph 80 % 0 in
03:10 64.9 °F 57.9 °F 30.2 in South 1 mph 2 mph 78 % 0 in
03:20 64.8 °F 57.7 °F 30.2 in SW 2 mph 2 mph 78 % 0 in
03:30 65.7 °F 58.6 °F 30.2 in Calm   2 mph 78 % 0 in
03:40 66.4 °F 58.8 °F 30.2 in Calm   2 mph 77 % 0 in
03:50 68.2 °F 60.1 °F 30.2 in SSW 1 mph 1 mph 75 % 0 in
04:00 68.7 °F 59.7 °F 30.2 in SSE 2 mph 3 mph 73 % 0 in
04:10 69.1 °F 59.4 °F 30.2 in SE 2 mph 2 mph 71 % 0 in
04:20 70.2 °F 60.3 °F 30.2 in SE 1 mph 4 mph 71 % 0 in
04:30 70.5 °F 59.9 °F 30.2 in SE 1 mph 3 mph 69 % 0 in
04:40 71.1 °F 60.1 °F 30.2 in ENE 3 mph 3 mph 68 % 0 in
04:50 71.1 °F 59.5 °F 30.2 in NNE 2 mph 3 mph 67 % 0 in
05:00 71.4 °F 59.9 °F 30.2 in NNE 2 mph 5 mph 67 % 0 in
05:10 72.7 °F 60.3 °F 30.2 in NE 1 mph 4 mph 65 % 0 in
05:20 73.6 °F 60.6 °F 30.2 in NE 1 mph 3 mph 64 % 0 in
05:30 72.9 °F 59.5 °F 30.2 in NNE 3 mph 4 mph 63 % 0 in
05:40 73.6 °F 60.6 °F 30.2 in NE 1 mph 4 mph 64 % 0 in
05:50 74.5 °F 61.2 °F 30.2 in NE 2 mph 3 mph 63 % 0 in
06:00 75.4 °F 60.4 °F 30.2 in NNE 2 mph 3 mph 60 % 0 in
11:07 74.1 °F 58.8 °F 30.2 in SE 3.5 mph 3.5 mph 59 % 0 in
11:12 75.7 °F 60.4 °F 30.2 in NNE 3.5 mph 3.5 mph 59 % 0 in
11:17 75.6 °F 59.4 °F 30.2 in NE 3.6 mph 3.6 mph 57 % 0 in
11:22 75.9 °F 59.5 °F 30.2 in NNW 3.5 mph 3.5 mph 57 % 0 in
11:27 76.3 °F 59.4 °F 30.2 in NNE 4.6 mph 4.6 mph 56 % 0 in
11:32 76.3 °F 58.8 °F 30.2 in ESE 5.8 mph 5.8 mph 55 % 0 in
11:37 77.2 °F 59.2 °F 30.2 in ENE 3.5 mph 3.5 mph 54 % 0 in
11:42 77.9 °F 58.3 °F 30.2 in SSW 4.3 mph 4.3 mph 51 % 0 in
11:47 77.5 °F 55.8 °F 30.2 in ESE 4.6 mph 4.6 mph 47 % 0 in
11:52 78.1 °F 56.8 °F 30.2 in South 2.3 mph 2.3 mph 48 % 0 in
11:57 79.2 °F 57.7 °F 30.2 in WSW 3.5 mph 3.5 mph 48 % 0 in
12:02 79.9 °F 57.7 °F 30.2 in SSW 7.8 mph 7.8 mph 47 % 0 in
12:07 79.9 °F 57.7 °F 30.2 in SW 3.5 mph 3.5 mph 47 % 0 in
12:12 79 °F 56.5 °F 30.2 in NE 4.6 mph 4.6 mph 46 % 0 in
12:17 79 °F 56.5 °F 30.2 in ESE 2.3 mph 2.3 mph 46 % 0 in
12:22 79.7 °F 57 °F 30.2 in NNW 2.3 mph 2.3 mph 46 % 0 in
12:27 80.4 °F 57 °F 30.2 in West 2.3 mph 2.4 mph 45 % 0 in
12:32 81.3 °F 57.4 °F 30.1 in WSW 5.6 mph 5.6 mph 44 % 0 in
12:34 81 °F 55.8 °F 30.1 in WSW 5.8 mph 5.8 mph 42 % 0 in
12:39 81.3 °F 56.7 °F 30.1 in WSW 4.9 mph 4.9 mph 43 % 0 in
12:44 81.5 °F 56.1 °F 30.1 in WSW 5.8 mph 5.8 mph 42 % 0 in
12:49 81 °F 55 °F 30.1 in West 5.8 mph 5.8 mph 41 % 0 in
12:54 81.9 °F 55.2 °F 30.1 in WSW 2.3 mph 2.3 mph 40 % 0 in
12:59 80.8 °F 54.1 °F 30.1 in WSW 2.3 mph 2.3 mph 40 % 0 in
13:04 81.1 °F 54.5 °F 30.1 in WNW 3.5 mph 3.5 mph 40 % 0 in
13:09 82.9 °F 56.1 °F 30.1 in East 3.5 mph 3.5 mph 40 % 0 in
13:14 82.8 °F 55.9 °F 30.1 in SSE 3.5 mph 3.5 mph 40 % 0 in
13:19 83.5 °F 55.9 °F 30.1 in South 3.5 mph 3.5 mph 39 % 0 in
13:24 83.1 °F 57 °F 30.1 in SSE 5.8 mph 5.8 mph 41 % 0 in
13:29 80.8 °F 55.6 °F 30.1 in East 6.9 mph 6.9 mph 42 % 0 in
13:34 79.7 °F 55.9 °F 30.1 in ENE 7.6 mph 7.6 mph 44 % 0 in
13:39 80.1 °F 56.1 °F 30.1 in ESE 9.2 mph 9.2 mph 44 % 0 in
13:44 79.7 °F 55.9 °F 30.1 in ESE 10.4 mph 10.4 mph 44 % 0 in
13:49 79 °F 55.2 °F 30.1 in SSE 9.2 mph 9.2 mph 44 % 0 in
13:54 79.5 °F 56.3 °F 30.1 in SE 5.8 mph 5.8 mph 45 % 0 in
13:59 80.1 °F 56.8 °F 30.1 in South 4.6 mph 4.6 mph 45 % 0 in
14:04 80.8 °F 56.8 °F 30.1 in SW 5.8 mph 5.8 mph 44 % 0 in
14:09 82 °F 57.4 °F 30.1 in SSW 8.1 mph 8.1 mph 43 % 0 in
14:14 82 °F 56.7 °F 30.1 in SSW 5.8 mph 5.8 mph 42 % 0 in
14:19 81.9 °F 57.2 °F 30.1 in WNW 4.6 mph 4.6 mph 43 % 0 in
14:24 83.5 °F 57.9 °F 30.1 in SW 8.1 mph 8.1 mph 42 % 0 in
14:29 83.3 °F 57.7 °F 30.1 in WNW 4.6 mph 4.6 mph 42 % 0 in
14:34 83.3 °F 57.7 °F 30.1 in SW 3.5 mph 3.5 mph 42 % 0 in
14:39 85.1 °F 58.1 °F 30.1 in WSW 5.9 mph 5.9 mph 40 % 0 in
14:44 84.6 °F 57.6 °F 30.1 in NW 3.5 mph 3.5 mph 40 % 0 in
14:49 83.5 °F 57.4 °F 30.1 in West 4 mph 4 mph 41 % 0 in
14:54 84.2 °F 56.7 °F 30.1 in SSW 3.5 mph 3.5 mph 39 % 0 in
14:59 82.6 °F 55 °F 30.1 in ENE 5.8 mph 5.8 mph 39 % 0 in
15:04 84.2 °F 55 °F 30.1 in SW 5.8 mph 5.8 mph 37 % 0 in
15:09 83.8 °F 54.9 °F 30.1 in SSW 6.9 mph 6.9 mph 37 % 0 in
15:14 82.8 °F 53.8 °F 30.1 in ESE 3.6 mph 3.6 mph 37 % 0 in
15:19 82.6 °F 53.8 °F 30.1 in South 4.6 mph 4.6 mph 37 % 0 in
15:24 84.2 °F 55 °F 30.1 in NW 2.3 mph   37 % 0 in
15:29 82.6 °F 55 °F 30.1 in West 5.8 mph 5.8 mph 39 % 0 in
15:34 83.3 °F 55.8 °F 30.1 in SSW 4.6 mph 5.4 mph 39 % 0 in
15:39 83.8 °F 54 °F 30.1 in SSE 5.8 mph 5.8 mph 36 % 0 in
15:44 84.7 °F 54.1 °F 30.1 in SSE 3.5 mph 3.5 mph 35 % 0 in
15:49 83.8 °F 54.9 °F 30.1 in WSW 4.6 mph 4.6 mph 37 % 0 in
15:54 84.6 °F 53.1 °F 30.1 in SW 4.6 mph 4.6 mph 34 % 0 in
15:55 84.7 °F 54.1 °F 30.1 in SSE 6.9 mph 6.9 mph 35 % 0 in
16:00 84.7 °F 53.2 °F 30.1 in SW 8.7 mph 8.7 mph 34 % 0 in
16:05 84.6 °F 52.3 °F 30.1 in East 8.1 mph 8.1 mph 33 % 0 in
16:10 85.3 °F 52.2 °F 30.1 in South 8.1 mph 8.1 mph 32 % 0 in
16:15 85.3 °F 52.2 °F 30.1 in West 5.8 mph 5.8 mph 32 % 0 in
16:20 84.6 °F 50.5 °F 30.1 in SW 10.4 mph 10.4 mph 31 % 0 in
16:25 84.2 °F 50.4 °F 30.1 in SW 9.8 mph 9.8 mph 31 % 0 in
16:30 84.2 °F 50.4 °F 30.1 in SW 7.1 mph 7.1 mph 31 % 0 in
16:35 84.4 °F 49.6 °F 30.1 in South 8.1 mph 8.1 mph 30 % 0 in
16:40 84.6 °F 50.5 °F 30.1 in South 8.1 mph 8.1 mph 31 % 0 in
16:45 84.2 °F 50.4 °F 30.1 in SW 8.5 mph 8.5 mph 31 % 0 in
16:50 83.7 °F 49.8 °F 30.1 in West 8.1 mph 8.1 mph 31 % 0 in
16:55 84.6 °F 50.5 °F 30.1 in WSW 8.1 mph 8.1 mph 31 % 0 in
17:00 84 °F 50.2 °F 30.1 in WSW 4.6 mph 4.6 mph 31 % 0 in
17:05 84.2 °F 50.4 °F 30.1 in SW 8.1 mph 8.1 mph 31 % 0 in
17:10 84.4 °F 50.4 °F 30.1 in WSW 4.6 mph 4.6 mph 31 % 0 in
17:15 83.7 °F 49.8 °F 30.1 in WSW 5.8 mph 5.8 mph 31 % 0 in
17:20 82.8 °F 48.9 °F 30.1 in SSE 5.8 mph 5.8 mph 31 % 0 in
17:25 83.5 °F 50.5 °F 30.1 in West 4.6 mph 4.6 mph 32 % 0 in
17:30 83.5 °F 51.3 °F 30.1 in SW 8.1 mph 8.1 mph 33 % 0 in
17:35 82.9 °F 50.9 °F 30.1 in SW 5.8 mph 5.8 mph 33 % 0 in
17:40 83.1 °F 51.1 °F 30.1 in West 8.1 mph 8.1 mph 33 % 0 in
17:45 82.9 °F 51.6 °F 30.1 in WSW 5.8 mph 5.8 mph 34 % 0 in
17:50 82.8 °F 51.4 °F 30.1 in SW 6.9 mph 6.9 mph 34 % 0 in
17:55 82.2 °F 51.1 °F 30.1 in SSW 5.8 mph 5.8 mph 34 % 0 in
18:00 82 °F 50.9 °F 30.1 in SSW 6.9 mph 6.9 mph 34 % 0 in
18:05 82.2 °F 51.8 °F 30.1 in SSW 6.9 mph 6.9 mph 35 % 0 in
18:10 82 °F 51.6 °F 30.1 in SW 9.2 mph 9.2 mph 35 % 0 in
18:15 82.2 °F 51.8 °F 30 in SW 5.8 mph 5.8 mph 35 % 0 in
18:20 81.9 °F 52.3 °F 30 in SSW 5.8 mph 5.8 mph 36 % 0 in
18:25 81.3 °F 51.1 °F 30 in South 8.1 mph 8.1 mph 35 % 0 in
18:30 81.5 °F 52 °F 30.1 in SW 5.8 mph 5.8 mph 36 % 0 in
18:35 81.7 °F 52.2 °F 30.1 in SSE 3.8 mph 3.8 mph 36 % 0 in
18:40 82 °F 52.3 °F 30.1 in SW 7.1 mph 7.1 mph 36 % 0 in
18:45 81.5 °F 52 °F 30.1 in SSW 4.6 mph 4.6 mph 36 % 0 in
18:50 81 °F 51.4 °F 30.1 in SW 5.8 mph 5.8 mph 36 % 0 in
18:55 80.2 °F 51.6 °F 30.1 in SW 6.9 mph 6.9 mph 37 % 0 in
19:00 80.1 °F 52.2 °F 30.1 in South 4.6 mph 4.6 mph 38 % 0 in
19:05 80.6 °F 52 °F 30.1 in South 4.6 mph 4.6 mph 37 % 0 in
19:10 80.6 °F 52 °F 30.1 in West 4.6 mph 4.6 mph 37 % 0 in
19:15 80.4 °F 52.5 °F 30.1 in SW 3.5 mph 3.6 mph 38 % 0 in
19:20 80.2 °F 53.1 °F 30.1 in SSW 2.4 mph 2.4 mph 39 % 0 in
19:25 79.7 °F 52.5 °F 30.1 in SW 5.8 mph 5.8 mph 39 % 0 in
19:30 79.5 °F 52.3 °F 30.1 in SW 3.5 mph 3.5 mph 39 % 0 in
19:35 79.2 °F 52.2 °F 30.1 in South 4.6 mph 4.6 mph 39 % 0 in
19:40 78.6 °F 51.6 °F 30.1 in WSW 5.8 mph 5.8 mph 39 % 0 in
19:45 78.1 °F 51.1 °F 30.1 in SW 5.8 mph 5.8 mph 39 % 0 in
19:50 77.9 °F 51.6 °F 30.1 in SSW 9.2 mph 9.2 mph 40 % 0 in
19:55 77.4 °F 51.1 °F 30.1 in SW 8.1 mph 8.1 mph 40 % 0 in
20:00 77 °F 51.4 °F 30.1 in SW 4.6 mph 4.6 mph 41 % 0 in
20:05 76.6 °F 51.8 °F 30.1 in SW 5.8 mph 5.8 mph 42 % 0 in
20:10 76.3 °F 51.4 °F 30.1 in SW 5.8 mph 5.8 mph 42 % 0 in
20:15 75.7 °F 51.6 °F 30.1 in WSW 8.1 mph 8.1 mph 43 % 0 in
20:20 75.4 °F 51.3 °F 30.1 in SSW 5.8 mph 5.8 mph 43 % 0 in
20:25 75.2 °F 51.8 °F 30.1 in SSW 8.1 mph 8.1 mph 44 % 0 in
20:30 74.8 °F 52.2 °F 30.1 in SW 4.6 mph 4.6 mph 45 % 0 in
20:35 74.7 °F 52 °F 30.1 in SW 3.5 mph 3.6 mph 45 % 0 in
20:40 74.3 °F 51.6 °F 30.1 in NW 5.8 mph 5.8 mph 45 % 0 in
20:45 73.9 °F 51.8 °F 30.1 in SW 5.8 mph 5.8 mph 46 % 0 in
20:50 73.8 °F 51.6 °F 30.1 in West 5.8 mph 5.8 mph 46 % 0 in
20:55 73.4 °F 52 °F 30.1 in SSW 4.6 mph 4.6 mph 47 % 0 in
21:00 73.2 °F 52.3 °F 30.1 in South 6.9 mph 6.9 mph 48 % 0 in
21:05 72.9 °F 52 °F 30.1 in SW 5.8 mph 5.8 mph 48 % 0 in
21:10 72.7 °F 52 °F 30.1 in SW 4.6 mph 4.6 mph 48 % 0 in
21:11 72.7 °F 52 °F 30.1 in WSW 3.8 mph 3.8 mph 48 % 0 in
21:15 65.5 °F 53.4 °F 30.1 in WSW 1 mph 3 mph 65 % 0 in
21:16 72.5 °F 52.2 °F 30.1 in SSW 5.8 mph 5.8 mph 49 % 0 in
21:21 72.3 °F 52.2 °F 30.1 in SSW 4.6 mph 4.6 mph 49 % 0 in
21:25 65.3 °F 54.1 °F 30.1 in Calm   2 mph 67 % 0 in
21:26 72.1 °F 52.5 °F 30.1 in South 4.6 mph 4.6 mph 50 % 0 in
21:31 72 °F 52.3 °F 30.1 in SW 3.5 mph 3.5 mph 50 % 0 in
21:35 65.1 °F 54 °F 30.1 in Calm     67 % 0 in
21:36 71.8 °F 52.7 °F 30.1 in SW 4.6 mph 4.6 mph 51 % 0 in
21:41 71.6 °F 52.5 °F 30.1 in SW 4.3 mph 4.3 mph 51 % 0 in
21:45 65.3 °F 54.5 °F 30.1 in SE 1 mph 2 mph 68 % 0 in
21:46 71.4 °F 52.3 °F 30.1 in SW 5.8 mph 5.8 mph 51 % 0 in
21:51 71.4 °F 52.9 °F 30.1 in WSW 4.6 mph 4.6 mph 52 % 0 in
21:55 65.5 °F 54.7 °F 30.1 in NE 1 mph 1 mph 68 % 0 in
21:56 71.2 °F 52.7 °F 30.1 in SSW 3.5 mph 3.5 mph 52 % 0 in
22:01 71.1 °F 53.1 °F 30.1 in SW 4.7 mph 4.7 mph 53 % 0 in
22:05 65.3 °F 54.5 °F 30.1 in NNE 1 mph 1 mph 68 % 0 in
22:06 71.1 °F 53.1 °F 30.1 in WSW 5.8 mph 5.8 mph 53 % 0 in
22:11 70.7 °F 53.2 °F 30.1 in WSW 4.6 mph 4.6 mph 54 % 0 in
22:15 64.9 °F 54.1 °F 30.1 in Calm   2 mph 68 % 0 in
22:16 70.7 °F 53.2 °F 30.1 in SW 2.3 mph 2.4 mph 54 % 0 in
22:21 70.5 °F 53.1 °F 30.1 in WSW 5.8 mph 5.8 mph 54 % 0 in
22:25 64.2 °F 53.1 °F 30.1 in WSW 2 mph 2 mph 67 % 0 in
22:26 70.3 °F 53.4 °F 30.1 in SW 2.4 mph 2.4 mph 55 % 0 in
22:31 70.3 °F 53.4 °F 30.1 in SSW 3.5 mph 3.5 mph 55 % 0 in
22:35 64.2 °F 53.4 °F 30.1 in Calm     68 % 0 in
22:36 70.2 °F 53.2 °F 30.1 in West 2.3 mph 2.4 mph 55 % 0 in
22:41 70.2 °F 53.8 °F 30.1 in WSW 2.4 mph 2.4 mph 56 % 0 in
22:45 64.2 °F 53.4 °F 30.1 in Calm     68 % 0 in
22:46 70 °F 53.6 °F 30.1 in WSW 2.3 mph 2.3 mph 56 % 0 in
22:51 70 °F 53.6 °F 30.1 in WSW 2.3 mph 2.3 mph 56 % 0 in
22:55 64.6 °F 53.8 °F 30.1 in WSW 1 mph 2 mph 68 % 0 in
22:56 69.8 °F 54 °F 30.1 in SW 2.3 mph 2.3 mph 57 % 0 in
23:01 69.8 °F 54 °F 30.1 in SW 2.3 mph 2.3 mph 57 % 0 in
23:05 64.6 °F 53.8 °F 30.1 in Calm   1 mph 68 % 0 in
23:06 69.8 °F 54 °F 30.1 in Calm     57 % 0 in
23:11 69.6 °F 53.8 °F 30.1 in West 2.3 mph 2.3 mph 57 % 0 in
23:15 64.6 °F 54.1 °F 30.1 in Calm     69 % 0 in
23:16 69.4 °F 54 °F 30.1 in Calm     58 % 0 in
23:21 69.4 °F 54 °F 30.1 in SW 1.2 mph 1.2 mph 58 % 0 in
23:25 64.4 °F 54 °F 30.1 in Calm     69 % 0 in
23:26 69.4 °F 54 °F 30.1 in Calm     58 % 0 in
23:31 69.3 °F 53.8 °F 30.1 in NNE 1.6 mph 1.6 mph 58 % 0 in
23:35 64.2 °F 53.8 °F 30.1 in Calm     69 % 0 in
23:36 69.1 °F 54.1 °F 30.1 in NNE 1.2 mph   59 % 0 in
23:41 69.1 °F 54.1 °F 30.1 in Calm     59 % 0 in
23:45 63.1 °F 52.3 °F 30.1 in Calm   2 mph 68 % 0 in
23:46 68.9 °F 53.4 °F 30.1 in Calm     58 % 0 in
23:51 68.9 °F 54 °F 30.1 in Calm     59 % 0 in
23:55 63.1 °F 52.9 °F 30.1 in Calm     69 % 0 in
23:56 68.9 °F 54 °F 30.1 in Calm     59 % 0 in
Meteo Sesrovires
Elogis d' Weather Underground - 3.75 mb

Guio original per  Jim McMurry - jmcmurry@mwt.net Adaptat per a la plantilla per  Wim van der Kuil - Leuven-Template.eu

Trobareu la nostra informacio del temps tambe a:

Weather Underground

AWEKAS